sensor_id;sensor_type;location;lat;lon;timestamp;P1;durP1;ratioP1;P2;durP2;ratioP2
27225;SDS011;14732;51.074;3.788;2023-06-04T00:00:31;2.25;;;1.10;;
27225;SDS011;14732;51.074;3.788;2023-06-04T00:02:57;3.92;;;1.38;;
27225;SDS011;14732;51.074;3.788;2023-06-04T00:05:23;3.03;;;1.40;;
27225;SDS011;14732;51.074;3.788;2023-06-04T00:07:50;5.72;;;1.83;;
27225;SDS011;14732;51.074;3.788;2023-06-04T00:10:17;2.80;;;1.30;;
27225;SDS011;14732;51.074;3.788;2023-06-04T00:12:42;2.92;;;1.20;;
27225;SDS011;14732;51.074;3.788;2023-06-04T00:15:08;2.65;;;1.40;;
27225;SDS011;14732;51.074;3.788;2023-06-04T00:17:34;5.60;;;1.25;;
27225;SDS011;14732;51.074;3.788;2023-06-04T00:20:00;1.45;;;1.20;;
27225;SDS011;14732;51.074;3.788;2023-06-04T00:22:25;3.47;;;1.65;;
27225;SDS011;14732;51.074;3.788;2023-06-04T00:24:51;3.15;;;1.50;;
27225;SDS011;14732;51.074;3.788;2023-06-04T00:27:17;3.38;;;1.15;;
27225;SDS011;14732;51.074;3.788;2023-06-04T00:29:42;5.03;;;1.45;;
27225;SDS011;14732;51.074;3.788;2023-06-04T00:32:08;3.38;;;1.40;;
27225;SDS011;14732;51.074;3.788;2023-06-04T00:34:34;7.57;;;1.73;;
27225;SDS011;14732;51.074;3.788;2023-06-04T00:37:00;5.55;;;1.65;;
27225;SDS011;14732;51.074;3.788;2023-06-04T00:39:26;5.07;;;1.55;;
27225;SDS011;14732;51.074;3.788;2023-06-04T00:41:52;3.47;;;1.65;;
27225;SDS011;14732;51.074;3.788;2023-06-04T00:44:17;2.58;;;1.50;;
27225;SDS011;14732;51.074;3.788;2023-06-04T00:46:46;1.83;;;1.60;;
27225;SDS011;14732;51.074;3.788;2023-06-04T00:49:12;2.28;;;1.70;;
27225;SDS011;14732;51.074;3.788;2023-06-04T00:51:38;4.72;;;1.45;;
27225;SDS011;14732;51.074;3.788;2023-06-04T00:54:04;3.95;;;1.70;;
27225;SDS011;14732;51.074;3.788;2023-06-04T00:56:34;3.40;;;1.90;;
27225;SDS011;14732;51.074;3.788;2023-06-04T00:59:02;3.25;;;1.77;;
27225;SDS011;14732;51.074;3.788;2023-06-04T01:01:49;6.25;;;1.60;;
27225;SDS011;14732;51.074;3.788;2023-06-04T01:07:25;3.35;;;1.88;;
27225;SDS011;14732;51.074;3.788;2023-06-04T01:09:52;3.35;;;1.90;;
27225;SDS011;14732;51.074;3.788;2023-06-04T01:12:19;6.28;;;1.98;;
27225;SDS011;14732;51.074;3.788;2023-06-04T01:14:44;5.20;;;1.80;;
27225;SDS011;14732;51.074;3.788;2023-06-04T01:25:34;3.35;;;1.70;;
27225;SDS011;14732;51.074;3.788;2023-06-04T01:28:05;4.53;;;2.05;;
27225;SDS011;14732;51.074;3.788;2023-06-04T01:30:36;2.65;;;1.65;;
27225;SDS011;14732;51.074;3.788;2023-06-04T01:33:10;2.67;;;1.65;;
27225;SDS011;14732;51.074;3.788;2023-06-04T01:35:38;3.10;;;1.60;;
27225;SDS011;14732;51.074;3.788;2023-06-04T01:38:04;3.22;;;1.80;;
27225;SDS011;14732;51.074;3.788;2023-06-04T01:40:30;3.92;;;2.13;;
27225;SDS011;14732;51.074;3.788;2023-06-04T01:42:56;3.70;;;1.60;;
27225;SDS011;14732;51.074;3.788;2023-06-04T01:45:22;4.70;;;1.80;;
27225;SDS011;14732;51.074;3.788;2023-06-04T01:47:48;1.80;;;1.50;;
27225;SDS011;14732;51.074;3.788;2023-06-04T01:50:14;5.57;;;1.55;;
27225;SDS011;14732;51.074;3.788;2023-06-04T01:52:40;2.13;;;1.67;;
27225;SDS011;14732;51.074;3.788;2023-06-04T01:55:07;3.90;;;1.60;;
27225;SDS011;14732;51.074;3.788;2023-06-04T01:57:37;6.57;;;1.80;;
27225;SDS011;14732;51.074;3.788;2023-06-04T02:00:03;6.00;;;1.65;;
27225;SDS011;14732;51.074;3.788;2023-06-04T02:04:58;2.83;;;1.50;;
27225;SDS011;14732;51.074;3.788;2023-06-04T02:07:24;2.90;;;1.70;;
27225;SDS011;14732;51.074;3.788;2023-06-04T02:09:51;3.95;;;1.70;;
27225;SDS011;14732;51.074;3.788;2023-06-04T02:12:17;2.47;;;1.58;;
27225;SDS011;14732;51.074;3.788;2023-06-04T02:14:43;3.78;;;1.60;;
27225;SDS011;14732;51.074;3.788;2023-06-04T02:17:10;3.83;;;1.95;;
27225;SDS011;14732;51.074;3.788;2023-06-04T02:19:41;2.85;;;2.10;;
27225;SDS011;14732;51.074;3.788;2023-06-04T02:22:15;2.55;;;1.60;;
27225;SDS011;14732;51.074;3.788;2023-06-04T02:24:41;3.83;;;1.90;;
27225;SDS011;14732;51.074;3.788;2023-06-04T02:27:08;2.97;;;1.80;;
27225;SDS011;14732;51.074;3.788;2023-06-04T02:29:34;2.72;;;2.00;;
27225;SDS011;14732;51.074;3.788;2023-06-04T02:32:00;3.55;;;1.73;;
27225;SDS011;14732;51.074;3.788;2023-06-04T02:34:26;3.38;;;1.70;;
27225;SDS011;14732;51.074;3.788;2023-06-04T02:36:52;4.18;;;1.88;;
27225;SDS011;14732;51.074;3.788;2023-06-04T02:39:18;2.70;;;1.70;;
27225;SDS011;14732;51.074;3.788;2023-06-04T02:41:44;4.15;;;2.00;;
27225;SDS011;14732;51.074;3.788;2023-06-04T02:44:10;5.55;;;1.90;;
27225;SDS011;14732;51.074;3.788;2023-06-04T02:46:36;1.88;;;1.50;;
27225;SDS011;14732;51.074;3.788;2023-06-04T02:49:02;2.67;;;1.90;;
27225;SDS011;14732;51.074;3.788;2023-06-04T02:51:28;2.70;;;1.70;;
27225;SDS011;14732;51.074;3.788;2023-06-04T02:53:54;2.95;;;1.92;;
27225;SDS011;14732;51.074;3.788;2023-06-04T02:56:20;4.88;;;1.88;;
27225;SDS011;14732;51.074;3.788;2023-06-04T02:58:53;2.50;;;1.83;;
27225;SDS011;14732;51.074;3.788;2023-06-04T03:01:20;4.05;;;1.77;;
27225;SDS011;14732;51.074;3.788;2023-06-04T03:03:47;6.57;;;1.70;;
27225;SDS011;14732;51.074;3.788;2023-06-04T03:06:13;2.95;;;1.75;;
27225;SDS011;14732;51.074;3.788;2023-06-04T03:08:40;7.03;;;1.80;;
27225;SDS011;14732;51.074;3.788;2023-06-04T03:11:06;4.55;;;1.80;;
27225;SDS011;14732;51.074;3.788;2023-06-04T03:13:32;2.92;;;1.92;;
27225;SDS011;14732;51.074;3.788;2023-06-04T03:15:58;2.70;;;1.60;;
27225;SDS011;14732;51.074;3.788;2023-06-04T03:18:29;4.38;;;1.88;;
27225;SDS011;14732;51.074;3.788;2023-06-04T03:20:55;3.28;;;1.58;;
27225;SDS011;14732;51.074;3.788;2023-06-04T03:23:21;2.17;;;1.80;;
27225;SDS011;14732;51.074;3.788;2023-06-04T03:25:47;2.78;;;1.80;;
27225;SDS011;14732;51.074;3.788;2023-06-04T03:28:13;5.55;;;1.80;;
27225;SDS011;14732;51.074;3.788;2023-06-04T03:30:39;5.82;;;1.85;;
27225;SDS011;14732;51.074;3.788;2023-06-04T03:33:05;2.95;;;1.60;;
27225;SDS011;14732;51.074;3.788;2023-06-04T03:35:32;3.85;;;1.77;;
27225;SDS011;14732;51.074;3.788;2023-06-04T03:37:58;4.07;;;2.00;;
27225;SDS011;14732;51.074;3.788;2023-06-04T03:40:23;3.47;;;1.90;;
27225;SDS011;14732;51.074;3.788;2023-06-04T03:42:49;1.88;;;1.70;;
27225;SDS011;14732;51.074;3.788;2023-06-04T03:45:15;6.95;;;1.85;;
27225;SDS011;14732;51.074;3.788;2023-06-04T03:47:40;2.63;;;1.70;;
27225;SDS011;14732;51.074;3.788;2023-06-04T03:50:06;5.20;;;1.83;;
27225;SDS011;14732;51.074;3.788;2023-06-04T03:52:32;5.85;;;1.77;;
27225;SDS011;14732;51.074;3.788;2023-06-04T03:54:58;3.58;;;2.00;;
27225;SDS011;14732;51.074;3.788;2023-06-04T03:57:24;5.03;;;2.17;;
27225;SDS011;14732;51.074;3.788;2023-06-04T03:59:49;3.33;;;2.10;;
27225;SDS011;14732;51.074;3.788;2023-06-04T04:02:15;3.55;;;1.80;;
27225;SDS011;14732;51.074;3.788;2023-06-04T04:04:43;3.58;;;1.65;;
27225;SDS011;14732;51.074;3.788;2023-06-04T04:07:09;6.47;;;2.03;;
27225;SDS011;14732;51.074;3.788;2023-06-04T04:09:35;8.23;;;2.10;;
27225;SDS011;14732;51.074;3.788;2023-06-04T04:12:02;3.20;;;2.03;;
27225;SDS011;14732;51.074;3.788;2023-06-04T04:14:30;2.83;;;1.93;;
27225;SDS011;14732;51.074;3.788;2023-06-04T04:16:56;3.92;;;1.92;;
27225;SDS011;14732;51.074;3.788;2023-06-04T04:19:22;6.75;;;2.00;;
27225;SDS011;14732;51.074;3.788;2023-06-04T04:21:47;5.05;;;2.28;;
27225;SDS011;14732;51.074;3.788;2023-06-04T04:24:28;3.67;;;2.05;;
27225;SDS011;14732;51.074;3.788;2023-06-04T04:26:54;4.72;;;2.00;;
27225;SDS011;14732;51.074;3.788;2023-06-04T04:29:20;2.28;;;2.00;;
27225;SDS011;14732;51.074;3.788;2023-06-04T04:31:52;3.03;;;1.98;;
27225;SDS011;14732;51.074;3.788;2023-06-04T04:34:22;3.15;;;2.22;;
27225;SDS011;14732;51.074;3.788;2023-06-04T04:36:49;5.05;;;2.20;;
27225;SDS011;14732;51.074;3.788;2023-06-04T04:39:23;6.00;;;2.30;;
27225;SDS011;14732;51.074;3.788;2023-06-04T04:41:49;4.10;;;1.90;;
27225;SDS011;14732;51.074;3.788;2023-06-04T04:44:16;3.97;;;2.17;;
27225;SDS011;14732;51.074;3.788;2023-06-04T04:46:41;2.88;;;2.20;;
27225;SDS011;14732;51.074;3.788;2023-06-04T04:49:07;5.00;;;2.05;;
27225;SDS011;14732;51.074;3.788;2023-06-04T04:51:33;5.80;;;2.38;;
27225;SDS011;14732;51.074;3.788;2023-06-04T04:53:59;5.05;;;1.98;;
27225;SDS011;14732;51.074;3.788;2023-06-04T04:56:26;4.40;;;2.20;;
27225;SDS011;14732;51.074;3.788;2023-06-04T04:58:52;3.03;;;2.03;;
27225;SDS011;14732;51.074;3.788;2023-06-04T05:01:18;4.15;;;2.10;;
27225;SDS011;14732;51.074;3.788;2023-06-04T05:03:44;5.47;;;2.05;;
27225;SDS011;14732;51.074;3.788;2023-06-04T05:06:10;4.50;;;1.90;;
27225;SDS011;14732;51.074;3.788;2023-06-04T05:08:36;8.05;;;2.08;;
27225;SDS011;14732;51.074;3.788;2023-06-04T05:11:02;3.08;;;1.95;;
27225;SDS011;14732;51.074;3.788;2023-06-04T05:13:28;3.15;;;1.90;;
27225;SDS011;14732;51.074;3.788;2023-06-04T05:15:53;4.50;;;2.00;;
27225;SDS011;14732;51.074;3.788;2023-06-04T05:18:19;4.20;;;1.90;;
27225;SDS011;14732;51.074;3.788;2023-06-04T05:20:46;2.45;;;1.95;;
27225;SDS011;14732;51.074;3.788;2023-06-04T05:23:12;4.07;;;2.22;;
27225;SDS011;14732;51.074;3.788;2023-06-04T05:25:38;4.50;;;2.22;;
27225;SDS011;14732;51.074;3.788;2023-06-04T05:28:03;4.30;;;1.98;;
27225;SDS011;14732;51.074;3.788;2023-06-04T05:30:31;6.75;;;1.98;;
27225;SDS011;14732;51.074;3.788;2023-06-04T05:32:58;5.13;;;2.10;;
27225;SDS011;14732;51.074;3.788;2023-06-04T05:35:24;5.30;;;2.00;;
27225;SDS011;14732;51.074;3.788;2023-06-04T05:37:50;2.63;;;2.22;;
27225;SDS011;14732;51.074;3.788;2023-06-04T05:40:18;3.35;;;1.98;;
27225;SDS011;14732;51.074;3.788;2023-06-04T05:42:48;3.58;;;2.08;;
27225;SDS011;14732;51.074;3.788;2023-06-04T05:45:14;4.90;;;2.30;;
27225;SDS011;14732;51.074;3.788;2023-06-04T05:47:40;5.53;;;2.42;;
27225;SDS011;14732;51.074;3.788;2023-06-04T05:50:06;3.08;;;2.08;;
27225;SDS011;14732;51.074;3.788;2023-06-04T05:52:32;3.00;;;2.35;;
27225;SDS011;14732;51.074;3.788;2023-06-04T05:54:59;3.83;;;2.42;;
27225;SDS011;14732;51.074;3.788;2023-06-04T05:57:25;5.00;;;2.08;;
27225;SDS011;14732;51.074;3.788;2023-06-04T05:59:50;3.13;;;2.35;;
27225;SDS011;14732;51.074;3.788;2023-06-04T06:02:16;3.17;;;2.40;;
27225;SDS011;14732;51.074;3.788;2023-06-04T06:04:42;7.78;;;2.30;;
27225;SDS011;14732;51.074;3.788;2023-06-04T06:07:08;2.67;;;1.88;;
27225;SDS011;14732;51.074;3.788;2023-06-04T06:09:34;4.43;;;2.40;;
27225;SDS011;14732;51.074;3.788;2023-06-04T06:12:01;4.10;;;2.40;;
27225;SDS011;14732;51.074;3.788;2023-06-04T06:14:26;3.97;;;2.05;;
27225;SDS011;14732;51.074;3.788;2023-06-04T06:16:52;4.47;;;2.10;;
27225;SDS011;14732;51.074;3.788;2023-06-04T06:19:18;6.63;;;2.17;;
27225;SDS011;14732;51.074;3.788;2023-06-04T06:21:44;5.20;;;2.30;;
27225;SDS011;14732;51.074;3.788;2023-06-04T06:24:10;5.43;;;2.10;;
27225;SDS011;14732;51.074;3.788;2023-06-04T06:26:36;3.92;;;2.00;;
27225;SDS011;14732;51.074;3.788;2023-06-04T06:29:02;3.78;;;2.20;;
27225;SDS011;14732;51.074;3.788;2023-06-04T06:31:27;3.47;;;2.33;;
27225;SDS011;14732;51.074;3.788;2023-06-04T06:33:53;4.85;;;2.63;;
27225;SDS011;14732;51.074;3.788;2023-06-04T06:36:19;5.43;;;1.95;;
27225;SDS011;14732;51.074;3.788;2023-06-04T06:38:45;6.07;;;2.50;;
27225;SDS011;14732;51.074;3.788;2023-06-04T06:41:11;5.82;;;2.25;;
27225;SDS011;14732;51.074;3.788;2023-06-04T06:43:37;4.72;;;2.55;;
27225;SDS011;14732;51.074;3.788;2023-06-04T06:46:03;3.00;;;2.40;;
27225;SDS011;14732;51.074;3.788;2023-06-04T06:48:28;3.17;;;2.28;;
27225;SDS011;14732;51.074;3.788;2023-06-04T06:50:54;5.10;;;2.45;;
27225;SDS011;14732;51.074;3.788;2023-06-04T06:53:20;4.90;;;2.20;;
27225;SDS011;14732;51.074;3.788;2023-06-04T06:55:46;3.63;;;2.85;;
27225;SDS011;14732;51.074;3.788;2023-06-04T06:58:12;2.88;;;2.10;;
27225;SDS011;14732;51.074;3.788;2023-06-04T07:00:37;3.42;;;2.60;;
27225;SDS011;14732;51.074;3.788;2023-06-04T07:03:03;3.42;;;2.40;;
27225;SDS011;14732;51.074;3.788;2023-06-04T07:05:29;4.45;;;2.28;;
27225;SDS011;14732;51.074;3.788;2023-06-04T07:07:55;4.13;;;2.55;;
27225;SDS011;14732;51.074;3.788;2023-06-04T07:10:22;4.57;;;2.20;;
27225;SDS011;14732;51.074;3.788;2023-06-04T07:12:48;4.03;;;2.38;;
27225;SDS011;14732;51.074;3.788;2023-06-04T07:15:14;4.55;;;2.67;;
27225;SDS011;14732;51.074;3.788;2023-06-04T07:17:39;4.43;;;2.55;;
27225;SDS011;14732;51.074;3.788;2023-06-04T07:20:05;3.90;;;2.50;;
27225;SDS011;14732;51.074;3.788;2023-06-04T07:22:34;5.50;;;2.67;;
27225;SDS011;14732;51.074;3.788;2023-06-04T07:25:00;6.55;;;2.40;;
27225;SDS011;14732;51.074;3.788;2023-06-04T07:27:26;4.15;;;2.45;;
27225;SDS011;14732;51.074;3.788;2023-06-04T07:29:53;3.83;;;2.17;;
27225;SDS011;14732;51.074;3.788;2023-06-04T07:32:18;4.00;;;2.40;;
27225;SDS011;14732;51.074;3.788;2023-06-04T07:34:44;2.92;;;2.20;;
27225;SDS011;14732;51.074;3.788;2023-06-04T07:37:10;4.75;;;2.35;;
27225;SDS011;14732;51.074;3.788;2023-06-04T07:39:38;4.28;;;2.30;;
27225;SDS011;14732;51.074;3.788;2023-06-04T07:42:04;6.35;;;2.38;;
27225;SDS011;14732;51.074;3.788;2023-06-04T07:44:32;3.50;;;2.42;;
27225;SDS011;14732;51.074;3.788;2023-06-04T07:46:58;4.80;;;2.30;;
27225;SDS011;14732;51.074;3.788;2023-06-04T07:49:23;2.30;;;1.80;;
27225;SDS011;14732;51.074;3.788;2023-06-04T07:51:49;4.53;;;2.40;;
27225;SDS011;14732;51.074;3.788;2023-06-04T07:54:15;6.18;;;2.20;;
27225;SDS011;14732;51.074;3.788;2023-06-04T07:56:41;4.75;;;2.40;;
27225;SDS011;14732;51.074;3.788;2023-06-04T07:59:07;3.92;;;2.00;;
27225;SDS011;14732;51.074;3.788;2023-06-04T08:01:33;7.97;;;2.38;;
27225;SDS011;14732;51.074;3.788;2023-06-04T08:03:58;2.60;;;2.00;;
27225;SDS011;14732;51.074;3.788;2023-06-04T08:06:24;3.15;;;2.10;;
27225;SDS011;14732;51.074;3.788;2023-06-04T08:08:51;4.72;;;2.20;;
27225;SDS011;14732;51.074;3.788;2023-06-04T08:11:17;3.75;;;2.03;;
27225;SDS011;14732;51.074;3.788;2023-06-04T08:13:43;2.75;;;1.80;;
27225;SDS011;14732;51.074;3.788;2023-06-04T08:16:08;2.25;;;1.55;;
27225;SDS011;14732;51.074;3.788;2023-06-04T08:18:41;3.65;;;1.80;;
27225;SDS011;14732;51.074;3.788;2023-06-04T08:21:10;2.83;;;1.70;;
27225;SDS011;14732;51.074;3.788;2023-06-04T08:23:36;3.38;;;1.60;;
27225;SDS011;14732;51.074;3.788;2023-06-04T08:26:02;2.67;;;1.60;;
27225;SDS011;14732;51.074;3.788;2023-06-04T08:28:28;2.78;;;1.88;;
27225;SDS011;14732;51.074;3.788;2023-06-04T08:30:54;2.00;;;1.50;;
27225;SDS011;14732;51.074;3.788;2023-06-04T08:33:20;3.10;;;1.60;;
27225;SDS011;14732;51.074;3.788;2023-06-04T08:35:45;4.05;;;1.60;;
27225;SDS011;14732;51.074;3.788;2023-06-04T08:38:11;2.42;;;1.55;;
27225;SDS011;14732;51.074;3.788;2023-06-04T08:40:37;3.08;;;1.40;;
27225;SDS011;14732;51.074;3.788;2023-06-04T08:43:02;2.08;;;1.23;;
27225;SDS011;14732;51.074;3.788;2023-06-04T08:45:29;2.40;;;1.63;;
27225;SDS011;14732;51.074;3.788;2023-06-04T08:48:03;3.33;;;1.48;;
27225;SDS011;14732;51.074;3.788;2023-06-04T08:50:33;3.25;;;1.48;;
27225;SDS011;14732;51.074;3.788;2023-06-04T08:53:00;2.75;;;1.60;;
27225;SDS011;14732;51.074;3.788;2023-06-04T08:55:26;3.60;;;1.67;;
27225;SDS011;14732;51.074;3.788;2023-06-04T08:57:52;2.17;;;1.35;;
27225;SDS011;14732;51.074;3.788;2023-06-04T09:00:18;2.75;;;1.30;;
27225;SDS011;14732;51.074;3.788;2023-06-04T09:02:45;2.67;;;1.50;;
27225;SDS011;14732;51.074;3.788;2023-06-04T09:05:16;2.88;;;1.50;;
27225;SDS011;14732;51.074;3.788;2023-06-04T09:07:46;2.17;;;1.25;;
27225;SDS011;14732;51.074;3.788;2023-06-04T09:10:15;1.73;;;1.20;;
27225;SDS011;14732;51.074;3.788;2023-06-04T09:12:46;3.03;;;1.25;;
27225;SDS011;14732;51.074;3.788;2023-06-04T09:15:13;2.08;;;1.48;;
27225;SDS011;14732;51.074;3.788;2023-06-04T09:17:41;2.92;;;1.33;;
27225;SDS011;14732;51.074;3.788;2023-06-04T09:20:07;3.60;;;1.17;;
27225;SDS011;14732;51.074;3.788;2023-06-04T09:22:36;2.33;;;1.10;;
27225;SDS011;14732;51.074;3.788;2023-06-04T09:25:06;2.30;;;1.20;;
27225;SDS011;14732;51.074;3.788;2023-06-04T09:27:39;3.28;;;1.30;;
27225;SDS011;14732;51.074;3.788;2023-06-04T09:30:11;2.22;;;1.17;;
27225;SDS011;14732;51.074;3.788;2023-06-04T09:32:36;2.95;;;1.05;;
27225;SDS011;14732;51.074;3.788;2023-06-04T09:35:18;2.08;;;1.20;;
27225;SDS011;14732;51.074;3.788;2023-06-04T09:37:54;2.08;;;1.10;;
27225;SDS011;14732;51.074;3.788;2023-06-04T09:40:21;3.40;;;1.25;;
27225;SDS011;14732;51.074;3.788;2023-06-04T09:42:47;12.98;;;1.35;;
27225;SDS011;14732;51.074;3.788;2023-06-04T09:45:31;1.23;;;0.95;;
27225;SDS011;14732;51.074;3.788;2023-06-04T09:47:59;2.53;;;1.30;;
27225;SDS011;14732;51.074;3.788;2023-06-04T09:50:26;2.08;;;1.10;;
27225;SDS011;14732;51.074;3.788;2023-06-04T09:52:53;3.40;;;1.50;;
27225;SDS011;14732;51.074;3.788;2023-06-04T09:55:19;2.25;;;1.05;;
27225;SDS011;14732;51.074;3.788;2023-06-04T09:57:47;2.42;;;1.17;;
27225;SDS011;14732;51.074;3.788;2023-06-04T10:00:15;3.92;;;1.23;;
27225;SDS011;14732;51.074;3.788;2023-06-04T10:02:42;4.32;;;0.90;;
27225;SDS011;14732;51.074;3.788;2023-06-04T10:05:12;4.45;;;1.13;;
27225;SDS011;14732;51.074;3.788;2023-06-04T10:07:43;3.20;;;1.60;;
27225;SDS011;14732;51.074;3.788;2023-06-04T10:10:16;2.47;;;1.27;;
27225;SDS011;14732;51.074;3.788;2023-06-04T10:12:46;2.53;;;1.40;;
27225;SDS011;14732;51.074;3.788;2023-06-04T10:15:17;5.22;;;1.30;;
27225;SDS011;14732;51.074;3.788;2023-06-04T10:17:44;2.60;;;1.08;;
27225;SDS011;14732;51.074;3.788;2023-06-04T10:20:12;2.53;;;1.10;;
27225;SDS011;14732;51.074;3.788;2023-06-04T10:22:38;3.70;;;1.40;;
27225;SDS011;14732;51.074;3.788;2023-06-04T10:25:04;3.78;;;1.50;;
27225;SDS011;14732;51.074;3.788;2023-06-04T10:27:31;2.10;;;1.10;;
27225;SDS011;14732;51.074;3.788;2023-06-04T10:29:57;2.63;;;1.13;;
27225;SDS011;14732;51.074;3.788;2023-06-04T10:32:26;1.17;;;0.98;;
27225;SDS011;14732;51.074;3.788;2023-06-04T10:37:22;5.43;;;1.23;;
27225;SDS011;14732;51.074;3.788;2023-06-04T10:39:56;2.03;;;1.00;;
27225;SDS011;14732;51.074;3.788;2023-06-04T10:42:22;1.65;;;1.10;;
27225;SDS011;14732;51.074;3.788;2023-06-04T10:44:49;1.88;;;1.20;;
27225;SDS011;14732;51.074;3.788;2023-06-04T10:47:26;1.95;;;1.00;;
27225;SDS011;14732;51.074;3.788;2023-06-04T10:49:55;1.63;;;1.05;;
27225;SDS011;14732;51.074;3.788;2023-06-04T10:52:32;3.05;;;1.27;;
27225;SDS011;14732;51.074;3.788;2023-06-04T10:55:05;1.58;;;1.13;;
27225;SDS011;14732;51.074;3.788;2023-06-04T10:57:33;4.20;;;1.10;;
27225;SDS011;14732;51.074;3.788;2023-06-04T10:59:59;1.40;;;1.00;;
27225;SDS011;14732;51.074;3.788;2023-06-04T11:02:26;1.35;;;0.90;;
27225;SDS011;14732;51.074;3.788;2023-06-04T11:04:59;1.65;;;1.08;;
27225;SDS011;14732;51.074;3.788;2023-06-04T11:07:43;1.48;;;1.08;;
27225;SDS011;14732;51.074;3.788;2023-06-04T11:10:10;2.40;;;0.95;;
27225;SDS011;14732;51.074;3.788;2023-06-04T11:12:43;1.90;;;1.15;;
27225;SDS011;14732;51.074;3.788;2023-06-04T11:15:13;1.50;;;1.13;;
27225;SDS011;14732;51.074;3.788;2023-06-04T11:18:40;1.60;;;1.13;;
27225;SDS011;14732;51.074;3.788;2023-06-04T11:20:41;3.38;;;1.10;;
27225;SDS011;14732;51.074;3.788;2023-06-04T11:23:07;2.05;;;1.15;;
27225;SDS011;14732;51.074;3.788;2023-06-04T11:25:33;1.45;;;1.05;;
27225;SDS011;14732;51.074;3.788;2023-06-04T11:27:59;2.97;;;1.08;;
27225;SDS011;14732;51.074;3.788;2023-06-04T11:30:26;2.60;;;1.20;;
27225;SDS011;14732;51.074;3.788;2023-06-04T11:33:02;5.22;;;1.50;;
27225;SDS011;14732;51.074;3.788;2023-06-04T11:35:28;2.45;;;1.05;;
27225;SDS011;14732;51.074;3.788;2023-06-04T11:37:55;2.50;;;1.10;;
27225;SDS011;14732;51.074;3.788;2023-06-04T11:40:22;2.10;;;1.10;;
27225;SDS011;14732;51.074;3.788;2023-06-04T11:42:48;3.83;;;1.30;;
27225;SDS011;14732;51.074;3.788;2023-06-04T11:45:16;2.45;;;1.25;;
27225;SDS011;14732;51.074;3.788;2023-06-04T11:47:52;2.40;;;1.10;;
27225;SDS011;14732;51.074;3.788;2023-06-04T11:50:20;1.20;;;0.90;;
27225;SDS011;14732;51.074;3.788;2023-06-04T11:52:47;1.98;;;1.25;;
27225;SDS011;14732;51.074;3.788;2023-06-04T11:55:14;4.30;;;1.20;;
27225;SDS011;14732;51.074;3.788;2023-06-04T11:57:45;1.83;;;1.10;;
27225;SDS011;14732;51.074;3.788;2023-06-04T12:00:11;3.20;;;0.90;;
27225;SDS011;14732;51.074;3.788;2023-06-04T12:02:38;6.75;;;1.30;;
27225;SDS011;14732;51.074;3.788;2023-06-04T12:05:33;2.92;;;1.35;;
27225;SDS011;14732;51.074;3.788;2023-06-04T12:08:06;3.92;;;1.10;;
27225;SDS011;14732;51.074;3.788;2023-06-04T12:10:41;1.65;;;1.10;;
27225;SDS011;14732;51.074;3.788;2023-06-04T12:13:08;2.30;;;1.20;;
27225;SDS011;14732;51.074;3.788;2023-06-04T12:15:35;2.35;;;1.30;;
27225;SDS011;14732;51.074;3.788;2023-06-04T12:18:01;1.88;;;1.00;;
27225;SDS011;14732;51.074;3.788;2023-06-04T12:20:39;3.40;;;0.93;;
27225;SDS011;14732;51.074;3.788;2023-06-04T12:23:07;1.67;;;1.00;;
27225;SDS011;14732;51.074;3.788;2023-06-04T12:25:33;4.90;;;1.00;;
27225;SDS011;14732;51.074;3.788;2023-06-04T12:28:02;3.65;;;1.38;;
27225;SDS011;14732;51.074;3.788;2023-06-04T12:30:35;2.08;;;1.30;;
27225;SDS011;14732;51.074;3.788;2023-06-04T12:33:02;1.65;;;1.20;;
27225;SDS011;14732;51.074;3.788;2023-06-04T12:35:28;9.45;;;1.20;;
27225;SDS011;14732;51.074;3.788;2023-06-04T12:37:53;2.33;;;1.10;;
27225;SDS011;14732;51.074;3.788;2023-06-04T12:40:19;3.13;;;1.15;;
27225;SDS011;14732;51.074;3.788;2023-06-04T12:42:45;1.33;;;1.10;;
27225;SDS011;14732;51.074;3.788;2023-06-04T12:45:11;1.55;;;1.08;;
27225;SDS011;14732;51.074;3.788;2023-06-04T12:47:39;1.92;;;1.40;;
27225;SDS011;14732;51.074;3.788;2023-06-04T12:50:05;2.28;;;1.20;;
27225;SDS011;14732;51.074;3.788;2023-06-04T12:52:31;1.60;;;1.20;;
27225;SDS011;14732;51.074;3.788;2023-06-04T12:54:57;4.47;;;1.30;;
27225;SDS011;14732;51.074;3.788;2023-06-04T12:57:23;2.28;;;1.20;;
27225;SDS011;14732;51.074;3.788;2023-06-04T12:59:48;2.97;;;1.30;;
27225;SDS011;14732;51.074;3.788;2023-06-04T13:02:14;3.25;;;1.25;;
27225;SDS011;14732;51.074;3.788;2023-06-04T13:04:40;2.17;;;1.40;;
27225;SDS011;14732;51.074;3.788;2023-06-04T13:07:07;3.83;;;1.08;;
27225;SDS011;14732;51.074;3.788;2023-06-04T13:09:33;2.08;;;1.00;;
27225;SDS011;14732;51.074;3.788;2023-06-04T13:12:00;3.80;;;1.38;;
27225;SDS011;14732;51.074;3.788;2023-06-04T13:14:25;3.45;;;1.20;;
27225;SDS011;14732;51.074;3.788;2023-06-04T13:16:51;1.13;;;0.93;;
27225;SDS011;14732;51.074;3.788;2023-06-04T13:19:17;2.00;;;1.30;;
27225;SDS011;14732;51.074;3.788;2023-06-04T13:21:45;1.60;;;1.10;;
27225;SDS011;14732;51.074;3.788;2023-06-04T13:24:11;2.40;;;1.25;;
27225;SDS011;14732;51.074;3.788;2023-06-04T13:26:36;2.42;;;1.40;;
27225;SDS011;14732;51.074;3.788;2023-06-04T13:29:03;1.58;;;1.10;;
27225;SDS011;14732;51.074;3.788;2023-06-04T13:31:29;4.90;;;1.40;;
27225;SDS011;14732;51.074;3.788;2023-06-04T13:33:55;2.58;;;1.10;;
27225;SDS011;14732;51.074;3.788;2023-06-04T13:36:21;1.52;;;1.25;;
27225;SDS011;14732;51.074;3.788;2023-06-04T13:38:46;1.88;;;1.10;;
27225;SDS011;14732;51.074;3.788;2023-06-04T13:41:12;5.80;;;1.20;;
27225;SDS011;14732;51.074;3.788;2023-06-04T13:43:37;2.10;;;1.30;;
27225;SDS011;14732;51.074;3.788;2023-06-04T13:46:04;4.03;;;1.05;;
27225;SDS011;14732;51.074;3.788;2023-06-04T13:48:30;4.30;;;1.00;;
27225;SDS011;14732;51.074;3.788;2023-06-04T13:50:56;1.90;;;1.20;;
27225;SDS011;14732;51.074;3.788;2023-06-04T13:53:21;1.70;;;1.00;;
27225;SDS011;14732;51.074;3.788;2023-06-04T13:55:47;1.25;;;0.90;;
27225;SDS011;14732;51.074;3.788;2023-06-04T13:58:13;2.28;;;1.10;;
27225;SDS011;14732;51.074;3.788;2023-06-04T14:00:40;2.28;;;1.10;;
27225;SDS011;14732;51.074;3.788;2023-06-04T14:03:05;1.42;;;0.98;;
27225;SDS011;14732;51.074;3.788;2023-06-04T14:05:31;4.75;;;1.10;;
27225;SDS011;14732;51.074;3.788;2023-06-04T14:07:57;2.85;;;0.98;;
27225;SDS011;14732;51.074;3.788;2023-06-04T14:10:23;1.63;;;0.90;;
27225;SDS011;14732;51.074;3.788;2023-06-04T14:12:48;1.58;;;0.98;;
27225;SDS011;14732;51.074;3.788;2023-06-04T14:15:14;3.00;;;1.02;;
27225;SDS011;14732;51.074;3.788;2023-06-04T14:17:40;3.35;;;1.08;;
27225;SDS011;14732;51.074;3.788;2023-06-04T14:20:06;5.25;;;1.20;;
27225;SDS011;14732;51.074;3.788;2023-06-04T14:22:36;1.00;;;0.80;;
27225;SDS011;14732;51.074;3.788;2023-06-04T14:25:03;6.38;;;1.05;;
27225;SDS011;14732;51.074;3.788;2023-06-04T14:27:29;3.05;;;1.15;;
27225;SDS011;14732;51.074;3.788;2023-06-04T14:29:55;2.10;;;1.02;;
27225;SDS011;14732;51.074;3.788;2023-06-04T14:32:21;6.75;;;1.00;;
27225;SDS011;14732;51.074;3.788;2023-06-04T14:34:47;2.05;;;0.98;;
27225;SDS011;14732;51.074;3.788;2023-06-04T14:37:13;1.45;;;0.90;;
27225;SDS011;14732;51.074;3.788;2023-06-04T14:39:38;5.35;;;1.20;;
27225;SDS011;14732;51.074;3.788;2023-06-04T14:42:04;1.52;;;0.93;;
27225;SDS011;14732;51.074;3.788;2023-06-04T14:44:30;4.30;;;1.10;;
27225;SDS011;14732;51.074;3.788;2023-06-04T14:46:56;1.98;;;1.05;;
27225;SDS011;14732;51.074;3.788;2023-06-04T14:49:22;2.85;;;1.00;;
27225;SDS011;14732;51.074;3.788;2023-06-04T14:51:47;2.13;;;1.02;;
27225;SDS011;14732;51.074;3.788;2023-06-04T14:54:13;3.13;;;0.82;;
27225;SDS011;14732;51.074;3.788;2023-06-04T14:56:39;1.50;;;0.90;;
27225;SDS011;14732;51.074;3.788;2023-06-04T14:59:05;3.47;;;1.10;;
27225;SDS011;14732;51.074;3.788;2023-06-04T15:01:34;2.35;;;1.13;;
27225;SDS011;14732;51.074;3.788;2023-06-04T15:04:02;1.75;;;0.90;;